Airfield :
LOGIN :

Register | Disclaimer

   EN    FR    IT 

 










Legend :    VFR   Marginal VFR   IFR   Intensive IFR   Very Intensive IFR
Visi :
Ceiling :
>= 8 km
>= 3000ft
5 to 8 km
1000 to 3000 ft
1500m to 5 km
500 to 1000 ft
800 to 1500m
200 to 500 ft
< 800m
< 200 ft
Symbols :   Thunderstorms  Fog  Heavy snow  Heavy precipitations  Wind > 20 kt
SIGMETs :     Misc.  Thunderstorms  Icing  Turbulence  Mountain Waves  Volcanic Ashes







- Airport Elevation : 106 ft
- IATA code : NRN


EDLV - Weeze

CURRENT METAR :
  • 260950Z 31006KT 260V350 5000 BR BKN013 21/18 Q1025

EXPIRED METARs :
  • 260920Z 31008KT 270V350 5000 BR BKN011 21/18 Q1025
  • 260850Z 31007KT 270V340 3800 BR BKN010 21/18 Q1025
  • 260820Z 30006KT 240V350 2700 BR BKN009 20/18 Q1024
  • 260750Z 28006KT 250V320 2300 BR BKN008 20/18 Q1024
  • 260720Z 26007KT 2100 BR BKN007 20/18 Q1024

TAF AMD TAF EDLV
Valid from the 26 at 09:00 until the 27 at 06:00 UTC


260946Z 2609/2706 28006KT 7000 NSC
TEMPO 2609/2611 4500 BR BKN012
BECMG 2609/2612 35006KT
BECMG 2619/2622 VRB03KT
No reported NOTAMs for that airfield.



MET'MAP, your aeronautical weather chart ! - Copyright ORBIFLY December 2007 - Disclaimer

ORBIFLY MET'MAP TEAM :

Programming & Development : Alexandra Zaïnal
Concept & Development : Baudouin d'Aumeries
Co-Development & Prog : Marc-Olivier Méhu
Technical & hardware support : Manuel Goepfert

Contact : metmap@orbifly.com




SOURCES & CREDITS :

   NOAA